createdAt,value
2018-01-16T00:01:17.643Z,3.83
2018-01-16T00:03:46.034Z,3.70
2018-01-16T00:06:13.523Z,4.90
2018-01-16T00:08:40.993Z,4.30
2018-01-16T00:11:08.557Z,4.03
2018-01-16T00:13:36.026Z,4.60
2018-01-16T00:16:03.509Z,3.80
2018-01-16T00:18:31.757Z,3.63
2018-01-16T00:20:59.925Z,3.53
2018-01-16T00:23:27.693Z,3.93
2018-01-16T00:25:55.286Z,4.07
2018-01-16T00:28:22.815Z,3.60
2018-01-16T00:30:50.294Z,3.67
2018-01-16T00:33:17.768Z,3.60
2018-01-16T00:35:45.286Z,4.63
2018-01-16T00:38:12.769Z,3.93
2018-01-16T00:40:41.013Z,3.83
2018-01-16T00:43:08.496Z,5.30
2018-01-16T00:45:35.959Z,4.53
2018-01-16T00:48:04.368Z,6.57
2018-01-16T00:50:31.850Z,4.67
2018-01-16T00:52:59.336Z,4.77
2018-01-16T00:55:26.793Z,6.13
2018-01-16T00:57:54.258Z,5.63
2018-01-16T01:00:21.735Z,5.33
2018-01-16T01:02:49.978Z,5.87
2018-01-16T01:05:18.230Z,5.10
2018-01-16T01:07:45.698Z,6.47
2018-01-16T01:10:13.184Z,5.90
2018-01-16T01:12:40.680Z,5.43
2018-01-16T01:15:08.147Z,6.73
2018-01-16T01:17:35.622Z,6.77
2018-01-16T01:20:03.111Z,6.83
2018-01-16T01:22:30.578Z,5.53
2018-01-16T01:24:58.052Z,4.70
2018-01-16T01:27:26.303Z,5.23
2018-01-16T01:29:53.782Z,4.50
2018-01-16T01:32:21.328Z,5.97
2018-01-16T01:34:48.809Z,4.80
2018-01-16T01:37:17.052Z,4.20
2018-01-16T01:39:44.535Z,4.63
2018-01-16T01:42:12.790Z,4.50
2018-01-16T01:44:40.271Z,5.17
2018-01-16T01:47:08.522Z,5.13
2018-01-16T01:49:35.995Z,5.80
2018-01-16T01:52:03.460Z,4.40
2018-01-16T01:54:30.996Z,5.00
2018-01-16T01:56:58.493Z,4.23
2018-01-16T01:59:26.741Z,3.60
2018-01-16T02:01:54.215Z,5.60
2018-01-16T02:04:21.720Z,3.57
2018-01-16T02:06:49.182Z,3.07
2018-01-16T02:09:16.669Z,3.57
2018-01-16T02:11:44.261Z,4.77
2018-01-16T02:14:12.532Z,4.00
2018-01-16T02:16:40.798Z,3.60
2018-01-16T02:19:08.278Z,3.50
2018-01-16T02:21:36.518Z,3.13
2018-01-16T02:24:03.996Z,3.00
2018-01-16T02:26:31.461Z,3.40
2018-01-16T02:28:59.698Z,2.60
2018-01-16T02:31:27.176Z,2.80
2018-01-16T02:33:54.732Z,3.70
2018-01-16T02:36:22.218Z,3.10
2018-01-16T02:38:49.712Z,2.80
2018-01-16T02:41:17.198Z,3.10
2018-01-16T02:43:44.677Z,3.80
2018-01-16T02:46:12.157Z,3.10
2018-01-16T02:48:40.456Z,2.70
2018-01-16T02:51:07.912Z,3.80
2018-01-16T02:53:35.397Z,2.63
2018-01-16T02:56:02.853Z,2.63
2018-01-16T02:58:30.339Z,3.50
2018-01-16T03:00:57.821Z,3.00
2018-01-16T03:03:26.074Z,3.60
2018-01-16T03:05:53.547Z,3.10
2018-01-16T03:08:21.017Z,2.90
2018-01-16T03:10:49.259Z,3.63
2018-01-16T03:13:16.768Z,3.63
2018-01-16T03:15:44.287Z,2.37
2018-01-16T03:18:11.773Z,2.00
2018-01-16T03:20:40.030Z,2.87
2018-01-16T03:23:07.491Z,1.57
2018-01-16T03:25:34.962Z,1.80
2018-01-16T03:28:03.222Z,2.23
2018-01-16T03:30:30.689Z,1.57
2018-01-16T03:32:58.154Z,1.40
2018-01-16T03:35:26.400Z,1.40
2018-01-16T03:37:53.869Z,0.90
2018-01-16T03:40:21.342Z,1.40
2018-01-16T03:42:49.598Z,1.40
2018-01-16T03:45:17.111Z,1.10
2018-01-16T03:47:44.591Z,1.40
2018-01-16T03:50:12.071Z,0.80
2018-01-16T03:52:39.547Z,1.70
2018-01-16T03:55:07.003Z,1.43
2018-01-16T03:57:34.497Z,1.63
2018-01-16T04:00:02.008Z,1.53
2018-01-16T04:02:29.487Z,2.20
2018-01-16T04:04:57.752Z,2.23
2018-01-16T04:07:25.237Z,2.23
2018-01-16T04:09:53.545Z,2.70
2018-01-16T04:12:21.025Z,2.53
2018-01-16T04:14:48.484Z,3.27
2018-01-16T04:17:15.958Z,2.50
2018-01-16T04:19:43.431Z,3.80
2018-01-16T04:22:10.918Z,3.90
2018-01-16T04:24:38.401Z,4.97
2018-01-16T04:27:05.902Z,4.10
2018-01-16T04:29:33.372Z,4.37
2018-01-16T04:32:01.619Z,3.77
2018-01-16T04:34:29.263Z,3.13
2018-01-16T04:36:56.743Z,4.00
2018-01-16T04:39:24.209Z,4.00
2018-01-16T04:41:51.668Z,4.47
2018-01-16T04:44:19.162Z,6.20
2018-01-16T04:46:46.634Z,3.03
2018-01-16T04:49:14.123Z,3.50
2018-01-16T04:51:41.617Z,3.83
2018-01-16T04:54:09.866Z,4.50
2018-01-16T04:56:37.362Z,4.53
2018-01-16T04:59:05.598Z,3.70
2018-01-16T05:01:33.103Z,4.00
2018-01-16T05:04:01.331Z,4.43
2018-01-16T05:06:28.945Z,3.90
2018-01-16T05:08:56.425Z,2.90
2018-01-16T05:11:23.906Z,3.17
2018-01-16T05:13:51.389Z,3.17
2018-01-16T05:16:19.641Z,3.60
2018-01-16T05:18:47.125Z,3.37
2018-01-16T05:21:14.603Z,3.30
2018-01-16T05:23:43.065Z,2.43
2018-01-16T05:26:11.288Z,3.00
2018-01-16T05:28:38.769Z,3.20
2018-01-16T05:31:06.257Z,3.23
2018-01-16T05:33:34.547Z,3.10
2018-01-16T05:36:02.778Z,2.87
2018-01-16T05:38:31.312Z,3.60
2018-01-16T05:40:59.036Z,3.80
2018-01-16T05:43:27.274Z,4.50
2018-01-16T05:45:55.254Z,2.87
2018-01-16T05:48:23.133Z,3.10
2018-01-16T05:50:50.619Z,3.73
2018-01-16T05:53:18.090Z,3.87
2018-01-16T05:55:45.584Z,3.50
2018-01-16T05:58:13.114Z,2.93
2018-01-16T06:00:40.589Z,3.80
2018-01-16T06:03:08.906Z,3.43
2018-01-16T06:05:36.378Z,3.87
2018-01-16T06:08:03.848Z,3.30
2018-01-16T06:10:31.335Z,4.33
2018-01-16T06:12:59.609Z,3.60
2018-01-16T06:15:27.866Z,4.00
2018-01-16T06:17:55.355Z,7.50
2018-01-16T06:20:23.630Z,3.40
2018-01-16T06:22:51.109Z,3.57
2018-01-16T06:25:18.586Z,3.33
2018-01-16T06:27:46.066Z,3.40
2018-01-16T06:30:13.546Z,3.27
2018-01-16T06:32:41.014Z,3.83
2018-01-16T06:35:08.492Z,4.30
2018-01-16T06:37:36.029Z,4.20
2018-01-16T06:40:04.378Z,2.80
2018-01-16T06:42:31.933Z,3.60
2018-01-16T06:44:59.446Z,3.50
2018-01-16T06:47:26.991Z,3.70
2018-01-16T06:49:54.483Z,4.83
2018-01-16T06:52:21.993Z,4.00
2018-01-16T06:54:50.262Z,4.13
2018-01-16T06:57:17.813Z,3.33
2018-01-16T06:59:45.310Z,3.63
2018-01-16T07:02:13.541Z,3.47
2018-01-16T07:04:41.198Z,2.77
2018-01-16T07:07:08.674Z,2.63
2018-01-16T07:09:36.243Z,3.57
2018-01-16T07:12:03.708Z,2.43
2018-01-16T07:14:33.375Z,2.53
2018-01-16T07:17:01.681Z,2.80
2018-01-16T07:19:29.638Z,3.00
2018-01-16T07:21:57.105Z,3.47
2018-01-16T07:24:24.630Z,2.77
2018-01-16T07:26:52.172Z,3.23
2018-01-16T07:29:19.730Z,3.33
2018-01-16T07:31:47.239Z,3.27
2018-01-16T07:34:14.724Z,5.07
2018-01-16T07:36:42.969Z,3.07
2018-01-16T07:39:10.443Z,3.47
2018-01-16T07:41:38.360Z,3.43
2018-01-16T07:44:05.849Z,3.87
2018-01-16T07:46:33.344Z,3.83
2018-01-16T07:49:02.359Z,4.30
2018-01-16T07:51:29.884Z,3.90
2018-01-16T07:53:57.433Z,3.60
2018-01-16T07:56:24.979Z,3.83
2018-01-16T07:58:52.553Z,2.97
2018-01-16T08:01:20.105Z,4.00
2018-01-16T08:03:47.656Z,2.60
2018-01-16T08:06:15.909Z,3.20
2018-01-16T08:08:43.410Z,2.27
2018-01-16T08:11:10.897Z,2.23
2018-01-16T08:13:38.372Z,3.00
2018-01-16T08:16:06.602Z,2.70
2018-01-16T08:18:34.086Z,3.07
2018-01-16T08:21:01.551Z,2.73
2018-01-16T08:23:29.794Z,3.03
2018-01-16T08:25:57.326Z,3.50
2018-01-16T08:28:24.803Z,3.90
2018-01-16T08:30:52.301Z,4.00
2018-01-16T08:33:20.553Z,3.43
2018-01-16T08:35:48.093Z,3.50
2018-01-16T08:38:15.624Z,3.03
2018-01-16T08:40:43.121Z,3.80
2018-01-16T08:43:10.600Z,3.03
2018-01-16T08:45:38.078Z,4.03
2018-01-16T08:48:06.351Z,4.27
2018-01-16T08:50:33.828Z,2.90
2018-01-16T08:53:01.311Z,3.20
2018-01-16T08:55:28.907Z,3.23
2018-01-16T08:57:56.814Z,3.80
2018-01-16T09:00:25.046Z,4.10
2018-01-16T09:02:52.517Z,3.90
2018-01-16T09:05:20.006Z,2.90
2018-01-16T09:07:48.445Z,3.33
2018-01-16T09:10:16.716Z,3.13
2018-01-16T09:12:44.195Z,3.80
2018-01-16T09:15:11.682Z,4.13
2018-01-16T09:17:40.588Z,2.07
2018-01-16T09:20:08.180Z,3.27
2018-01-16T09:22:35.658Z,3.27
2018-01-16T09:25:03.185Z,5.10
2018-01-16T09:27:30.665Z,3.10
2018-01-16T09:29:58.249Z,4.23
2018-01-16T09:32:25.724Z,3.63
2018-01-16T09:34:53.197Z,3.40
2018-01-16T09:37:20.657Z,3.50
2018-01-16T09:39:48.203Z,3.00
2018-01-16T09:42:16.449Z,3.67
2018-01-16T09:44:43.929Z,2.70
2018-01-16T09:47:11.410Z,3.73
2018-01-16T09:49:38.886Z,4.50
2018-01-16T09:52:06.353Z,4.17
2018-01-16T09:54:33.842Z,5.20
2018-01-16T09:57:01.323Z,4.80
2018-01-16T09:59:29.587Z,3.60
2018-01-16T10:01:57.106Z,5.80
2018-01-16T10:04:24.606Z,3.90
2018-01-16T10:06:52.086Z,4.33
2018-01-16T10:09:19.548Z,4.33
2018-01-16T10:11:47.806Z,5.33
2018-01-16T10:14:15.280Z,5.10
2018-01-16T10:16:43.522Z,5.20
2018-01-16T10:19:10.986Z,4.73
2018-01-16T10:21:38.494Z,4.70
2018-01-16T10:24:05.982Z,3.57
2018-01-16T10:26:33.449Z,3.27
2018-01-16T10:29:00.951Z,3.80
2018-01-16T10:31:29.181Z,5.30
2018-01-16T10:33:56.657Z,2.50
2018-01-16T10:36:24.128Z,2.80
2018-01-16T10:38:51.612Z,2.60
2018-01-16T10:41:19.830Z,4.60
2018-01-16T10:43:47.321Z,4.80
2018-01-16T10:46:14.817Z,5.07
2018-01-16T10:48:42.325Z,3.80
2018-01-16T10:51:09.807Z,3.00
2018-01-16T10:53:38.068Z,3.50
2018-01-16T10:56:05.598Z,3.20
2018-01-16T10:58:33.229Z,3.30
2018-01-16T11:01:00.716Z,2.80
2018-01-16T11:03:30.552Z,2.97
2018-01-16T11:05:58.026Z,3.20
2018-01-16T11:08:26.367Z,3.20
2018-01-16T11:10:54.011Z,2.60
2018-01-16T11:13:21.503Z,2.30
2018-01-16T11:15:48.943Z,2.83
2018-01-16T11:18:16.459Z,2.80
2018-01-16T11:20:43.948Z,2.30
2018-01-16T11:23:11.430Z,3.20
2018-01-16T11:25:39.889Z,2.30
2018-01-16T11:28:07.510Z,3.60
2018-01-16T11:30:35.068Z,2.50
2018-01-16T11:33:02.548Z,2.73
2018-01-16T11:35:31.211Z,3.00
2018-01-16T11:37:58.676Z,2.60
2018-01-16T11:40:26.138Z,6.07
2018-01-16T11:42:53.658Z,3.47
2018-01-16T11:45:21.872Z,2.73
2018-01-16T11:47:49.404Z,3.90
2018-01-16T11:50:17.944Z,3.10
2018-01-16T11:52:45.500Z,2.83
2018-01-16T11:55:12.975Z,3.60
2018-01-16T11:57:40.435Z,3.90
2018-01-16T12:00:08.168Z,4.00
2018-01-16T12:02:35.634Z,3.13
2018-01-16T12:05:03.097Z,3.30
2018-01-16T12:07:30.536Z,3.10
2018-01-16T12:09:58.857Z,4.37
2018-01-16T12:12:27.107Z,3.20
2018-01-16T12:14:55.881Z,4.30
2018-01-16T12:17:23.428Z,3.87
2018-01-16T12:19:53.101Z,4.80
2018-01-16T12:22:23.673Z,3.40
2018-01-16T12:24:53.223Z,4.00
2018-01-16T12:27:22.054Z,4.07
2018-01-16T12:29:49.585Z,3.37
2018-01-16T12:32:17.075Z,3.40
2018-01-16T12:34:44.550Z,3.03
2018-01-16T12:37:12.105Z,3.20
2018-01-16T12:39:39.603Z,4.57
2018-01-16T12:42:11.127Z,3.60
2018-01-16T12:44:39.403Z,3.70
2018-01-16T12:47:09.296Z,3.10
2018-01-16T12:49:36.806Z,2.93
2018-01-16T12:52:05.457Z,3.90
2018-01-16T12:54:32.969Z,3.73
2018-01-16T12:57:01.825Z,4.40
2018-01-16T12:59:29.356Z,3.73
2018-01-16T13:01:56.840Z,3.63
2018-01-16T13:04:25.930Z,3.00
2018-01-16T13:06:54.150Z,4.33
2018-01-16T13:09:21.617Z,3.40
2018-01-16T13:11:50.336Z,3.00
2018-01-16T13:14:24.398Z,2.30
2018-01-16T13:16:51.881Z,2.77
2018-01-16T13:19:24.924Z,2.03
2018-01-16T13:21:52.434Z,3.00
2018-01-16T13:24:19.895Z,1.67
2018-01-16T13:26:47.366Z,2.17
2018-01-16T13:29:14.837Z,2.23
2018-01-16T13:31:43.084Z,2.33
2018-01-16T13:34:10.558Z,2.37
2018-01-16T13:36:38.306Z,2.50
2018-01-16T13:39:05.751Z,3.70
2018-01-16T13:41:33.569Z,2.23
2018-01-16T13:44:03.664Z,2.60
2018-01-16T13:46:31.356Z,2.40
2018-01-16T13:48:58.852Z,2.10
2018-01-16T13:51:27.607Z,1.67
2018-01-16T13:53:55.068Z,1.83
2018-01-16T13:56:23.401Z,2.63
2018-01-16T13:58:51.482Z,2.33
2018-01-16T14:01:19.710Z,2.00
2018-01-16T14:03:47.183Z,2.87
2018-01-16T14:06:14.638Z,1.93
2018-01-16T14:08:43.518Z,2.87
2018-01-16T14:11:10.965Z,2.40
2018-01-16T14:13:38.422Z,1.83
2018-01-16T14:16:05.919Z,2.60
2018-01-16T14:18:34.156Z,2.77
2018-01-16T14:21:01.616Z,1.97
2018-01-16T14:23:29.116Z,2.37
2018-01-16T14:25:56.573Z,2.23
2018-01-16T14:28:24.810Z,2.00
2018-01-16T14:30:52.997Z,2.17
2018-01-16T14:33:20.450Z,3.00
2018-01-16T14:35:47.929Z,2.23
2018-01-16T14:38:16.306Z,2.67
2018-01-16T14:40:43.801Z,2.63
2018-01-16T14:43:11.270Z,2.30
2018-01-16T14:45:38.754Z,3.23
2018-01-16T14:48:06.213Z,3.17
2018-01-16T14:50:34.466Z,2.70
2018-01-16T14:53:05.161Z,2.70
2018-01-16T14:55:32.628Z,2.40
2018-01-16T14:58:00.072Z,2.80
2018-01-16T15:00:29.446Z,3.00
2018-01-16T15:02:57.715Z,2.50
2018-01-16T15:05:25.178Z,3.20
2018-01-16T15:07:52.651Z,2.47
2018-01-16T15:10:20.092Z,2.77
2018-01-16T15:12:47.681Z,2.67
2018-01-16T15:15:15.166Z,4.40
2018-01-16T15:17:42.661Z,2.87
2018-01-16T15:20:10.121Z,3.00
2018-01-16T15:22:37.578Z,3.00
2018-01-16T15:25:05.053Z,2.87
2018-01-16T15:27:32.510Z,2.87
2018-01-16T15:30:00.732Z,3.67
2018-01-16T15:32:28.250Z,3.40
2018-01-16T15:34:55.698Z,3.37
2018-01-16T15:37:26.296Z,2.97
2018-01-16T15:39:53.841Z,4.63
2018-01-16T15:42:21.303Z,4.13
2018-01-16T15:44:48.863Z,3.63
2018-01-16T15:47:24.929Z,3.93
2018-01-16T15:49:52.520Z,3.43
2018-01-16T15:52:20.746Z,4.70
2018-01-16T15:54:48.212Z,3.00
2018-01-16T15:57:17.348Z,3.37
2018-01-16T15:59:44.894Z,3.83
2018-01-16T16:02:13.165Z,3.00
2018-01-16T16:04:40.863Z,2.33
2018-01-16T16:07:08.379Z,4.93
2018-01-16T16:09:36.934Z,3.40
2018-01-16T16:12:04.518Z,2.03
2018-01-16T16:14:32.004Z,2.97
2018-01-16T16:17:01.234Z,2.50
2018-01-16T16:19:28.781Z,2.30
2018-01-16T16:21:56.556Z,2.73
2018-01-16T16:24:23.990Z,2.50
2018-01-16T16:26:52.247Z,2.97
2018-01-16T16:29:20.077Z,3.63
2018-01-16T16:31:47.581Z,2.80
2018-01-16T16:34:15.941Z,4.80
2018-01-16T16:36:45.456Z,3.00
2018-01-16T16:39:12.909Z,3.60
2018-01-16T16:41:40.406Z,4.00
2018-01-16T16:44:08.383Z,2.83
2018-01-16T16:46:35.864Z,4.33
2018-01-16T16:49:03.318Z,4.53
2018-01-16T16:51:30.789Z,3.67
2018-01-16T16:53:58.950Z,3.20
2018-01-16T16:56:26.400Z,3.53
2018-01-16T16:58:53.871Z,4.60
2018-01-16T17:01:21.338Z,3.90
2018-01-16T17:03:49.820Z,3.73
2018-01-16T17:06:17.907Z,5.73
2018-01-16T17:08:46.150Z,4.97
2018-01-16T17:11:13.601Z,6.10
2018-01-16T17:13:41.073Z,3.70
2018-01-16T17:16:08.598Z,5.40
2018-01-16T17:18:36.353Z,4.30
2018-01-16T17:21:04.638Z,5.03
2018-01-16T17:23:32.092Z,3.90
2018-01-16T17:25:59.585Z,4.13
2018-01-16T17:28:27.020Z,3.40
2018-01-16T17:30:55.282Z,3.73
2018-01-16T17:33:22.774Z,3.60
2018-01-16T17:35:50.256Z,5.83
2018-01-16T17:38:18.482Z,3.50
2018-01-16T17:40:45.957Z,4.10
2018-01-16T17:43:13.437Z,3.47
2018-01-16T17:45:41.672Z,3.67
2018-01-16T17:48:09.116Z,3.33
2018-01-16T17:50:36.588Z,2.50
2018-01-16T17:53:04.138Z,3.60
2018-01-16T17:55:33.576Z,3.37
2018-01-16T17:58:01.064Z,2.73
2018-01-16T18:00:28.509Z,3.30
2018-01-16T18:02:57.675Z,2.63
2018-01-16T18:05:25.965Z,4.50
2018-01-16T18:07:53.593Z,4.70
2018-01-16T18:10:21.037Z,3.40
2018-01-16T18:12:48.769Z,3.37
2018-01-16T18:15:16.973Z,4.10
2018-01-16T18:17:44.426Z,3.80
2018-01-16T18:20:11.884Z,3.93
2018-01-16T18:22:40.131Z,5.47
2018-01-16T18:25:08.362Z,4.57
2018-01-16T18:27:36.448Z,4.40
2018-01-16T18:30:03.901Z,4.60
2018-01-16T18:32:31.372Z,4.13
2018-01-16T18:35:00.380Z,4.63
2018-01-16T18:37:28.619Z,4.20
2018-01-16T18:39:56.064Z,5.90
2018-01-16T18:42:23.519Z,5.80
2018-01-16T18:44:51.785Z,5.17
2018-01-16T18:47:19.276Z,5.33
2018-01-16T18:49:46.728Z,6.87
2018-01-16T18:52:15.011Z,4.93
2018-01-16T18:54:42.496Z,6.40
2018-01-16T18:57:09.949Z,6.00
2018-01-16T18:59:38.201Z,5.90
2018-01-16T19:02:05.998Z,6.00
2018-01-16T19:04:33.532Z,6.10
2018-01-16T19:07:00.949Z,7.17
2018-01-16T19:09:29.030Z,7.40
2018-01-16T19:11:57.341Z,6.10
2018-01-16T19:14:26.537Z,9.20
2018-01-16T19:16:54.815Z,14.70
2018-01-16T19:19:23.746Z,8.83
2018-01-16T19:21:51.211Z,6.40
2018-01-16T19:24:18.697Z,9.00
2018-01-16T19:26:46.172Z,6.77
2018-01-16T19:29:14.453Z,6.93
2018-01-16T19:31:42.716Z,6.00
2018-01-16T19:34:10.210Z,6.70
2018-01-16T19:36:38.454Z,6.90
2018-01-16T19:39:08.840Z,7.70
2018-01-16T19:41:36.330Z,8.37
2018-01-16T19:44:06.570Z,7.97
2018-01-16T19:46:35.345Z,8.43
2018-01-16T19:49:03.621Z,8.27
2018-01-16T19:51:31.973Z,8.23
2018-01-16T19:54:00.321Z,5.77
2018-01-16T19:56:27.784Z,8.60
2018-01-16T19:58:55.260Z,7.97
2018-01-16T20:01:22.892Z,9.73
2018-01-16T20:03:50.454Z,9.23
2018-01-16T20:06:20.108Z,8.23
2018-01-16T20:08:48.404Z,5.53
2018-01-16T20:11:15.892Z,7.20
2018-01-16T20:13:44.249Z,5.53
2018-01-16T20:16:12.547Z,7.00
2018-01-16T20:18:40.449Z,6.43
2018-01-16T20:21:07.917Z,6.30
2018-01-16T20:23:35.726Z,8.63
2018-01-16T20:26:03.185Z,6.17
2018-01-16T20:28:30.660Z,5.23
2018-01-16T20:30:58.167Z,4.13
2018-01-16T20:33:31.179Z,6.30
2018-01-16T20:35:58.648Z,5.50
2018-01-16T20:38:30.567Z,5.23
2018-01-16T20:40:58.061Z,6.43
2018-01-16T20:43:25.566Z,6.07
2018-01-16T20:45:53.031Z,6.20
2018-01-16T20:48:20.517Z,6.80
2018-01-16T20:50:48.759Z,4.90
2018-01-16T20:53:16.250Z,4.60
2018-01-16T20:55:43.688Z,4.50
2018-01-16T20:58:11.947Z,3.77
2018-01-16T21:00:42.961Z,6.23
2018-01-16T21:03:15.136Z,4.07
2018-01-16T21:05:44.678Z,3.87
2018-01-16T21:08:12.136Z,2.93
2018-01-16T21:10:40.402Z,4.03
2018-01-16T21:13:07.843Z,3.90
2018-01-16T21:15:35.314Z,3.60
2018-01-16T21:18:03.516Z,3.43
2018-01-16T21:20:31.015Z,4.50
2018-01-16T21:22:58.484Z,5.43
2018-01-16T21:25:25.969Z,3.80
2018-01-16T21:27:54.193Z,4.67
2018-01-16T21:30:21.662Z,4.10
2018-01-16T21:32:49.136Z,4.10
2018-01-16T21:35:16.645Z,3.20
2018-01-16T21:37:45.004Z,3.70
2018-01-16T21:40:12.479Z,4.73
2018-01-16T21:42:39.934Z,3.17
2018-01-16T21:45:07.401Z,3.40
2018-01-16T21:47:34.877Z,3.80
2018-01-16T21:50:02.338Z,3.33
2018-01-16T21:52:29.796Z,3.57
2018-01-16T21:54:57.268Z,3.73
2018-01-16T21:57:24.791Z,4.03
2018-01-16T21:59:52.988Z,2.97
2018-01-16T22:02:20.452Z,3.90
2018-01-16T22:04:48.530Z,4.03
2018-01-16T22:07:16.760Z,3.37
2018-01-16T22:09:44.217Z,3.90
2018-01-16T22:12:12.281Z,3.47
2018-01-16T22:14:39.735Z,2.43
2018-01-16T22:17:07.960Z,3.50
2018-01-16T22:19:35.416Z,3.90
2018-01-16T22:22:02.897Z,3.60
2018-01-16T22:24:31.126Z,3.80
2018-01-16T22:26:59.069Z,3.33
2018-01-16T22:29:26.555Z,2.70
2018-01-16T22:31:54.625Z,3.90
2018-01-16T22:34:22.881Z,3.93
2018-01-16T22:36:51.163Z,4.97
2018-01-16T22:39:18.777Z,4.47
2018-01-16T22:41:46.980Z,3.40
2018-01-16T22:44:15.241Z,3.57
2018-01-16T22:46:42.736Z,3.43
2018-01-16T22:49:10.198Z,2.87
2018-01-16T22:51:37.756Z,3.13
2018-01-16T22:54:05.268Z,4.40
2018-01-16T22:56:32.741Z,2.47
2018-01-16T22:59:00.178Z,3.57
2018-01-16T23:01:31.382Z,3.90
2018-01-16T23:03:58.862Z,3.07
2018-01-16T23:06:26.312Z,2.83
2018-01-16T23:08:53.797Z,3.07
2018-01-16T23:11:21.249Z,3.57
2018-01-16T23:13:49.486Z,3.30
2018-01-16T23:16:16.944Z,2.60
2018-01-16T23:18:44.401Z,2.87
2018-01-16T23:21:11.865Z,2.40
2018-01-16T23:23:40.244Z,2.43
2018-01-16T23:26:07.771Z,2.13
2018-01-16T23:28:35.176Z,2.30
2018-01-16T23:31:03.429Z,1.80
2018-01-16T23:33:31.801Z,1.83
2018-01-16T23:35:59.248Z,2.13
2018-01-16T23:38:26.723Z,2.40
2018-01-16T23:40:54.225Z,2.00
2018-01-16T23:43:21.686Z,1.53
2018-01-16T23:45:49.204Z,2.20
2018-01-16T23:48:17.429Z,2.10
2018-01-16T23:50:44.881Z,1.90
2018-01-16T23:53:12.365Z,1.67
2018-01-16T23:55:39.832Z,2.03
2018-01-16T23:58:08.243Z,2.10
